sensor_id;sensor_type;location;lat;lon;timestamp;P1;durP1;ratioP1;P2;durP2;ratioP2
64033;SDS011;50280;49.864;8.638;2022-07-26T00:00:54;7.10;;;3.38;;
64033;SDS011;50280;49.864;8.638;2022-07-26T00:03:28;7.13;;;3.35;;
64033;SDS011;50280;49.864;8.638;2022-07-26T00:06:01;6.50;;;3.13;;
64033;SDS011;50280;49.864;8.638;2022-07-26T00:08:34;5.72;;;2.97;;
64033;SDS011;50280;49.864;8.638;2022-07-26T00:11:06;6.63;;;2.75;;
64033;SDS011;50280;49.864;8.638;2022-07-26T00:13:39;7.82;;;2.50;;
64033;SDS011;50280;49.864;8.638;2022-07-26T00:16:12;7.60;;;2.85;;
64033;SDS011;50280;49.864;8.638;2022-07-26T00:18:46;5.47;;;2.65;;
64033;SDS011;50280;49.864;8.638;2022-07-26T00:21:19;5.68;;;2.90;;
64033;SDS011;50280;49.864;8.638;2022-07-26T00:23:51;6.88;;;2.60;;
64033;SDS011;50280;49.864;8.638;2022-07-26T00:26:24;6.97;;;2.75;;
64033;SDS011;50280;49.864;8.638;2022-07-26T00:28:57;6.25;;;2.65;;
64033;SDS011;50280;49.864;8.638;2022-07-26T00:31:30;6.63;;;3.50;;
64033;SDS011;50280;49.864;8.638;2022-07-26T00:34:04;7.50;;;2.67;;
64033;SDS011;50280;49.864;8.638;2022-07-26T00:36:36;5.88;;;2.60;;
64033;SDS011;50280;49.864;8.638;2022-07-26T00:39:09;3.65;;;2.22;;
64033;SDS011;50280;49.864;8.638;2022-07-26T00:41:41;6.65;;;2.80;;
64033;SDS011;50280;49.864;8.638;2022-07-26T00:44:14;5.95;;;2.65;;
64033;SDS011;50280;49.864;8.638;2022-07-26T00:46:46;12.63;;;3.15;;
64033;SDS011;50280;49.864;8.638;2022-07-26T00:49:20;4.43;;;2.20;;
64033;SDS011;50280;49.864;8.638;2022-07-26T00:51:52;5.28;;;2.60;;
64033;SDS011;50280;49.864;8.638;2022-07-26T00:54:25;4.95;;;2.33;;
64033;SDS011;50280;49.864;8.638;2022-07-26T00:56:57;5.13;;;2.40;;
64033;SDS011;50280;49.864;8.638;2022-07-26T00:59:30;7.13;;;2.30;;
64033;SDS011;50280;49.864;8.638;2022-07-26T01:02:03;5.13;;;1.90;;
64033;SDS011;50280;49.864;8.638;2022-07-26T01:04:41;4.97;;;2.10;;
64033;SDS011;50280;49.864;8.638;2022-07-26T01:07:15;8.55;;;2.53;;
64033;SDS011;50280;49.864;8.638;2022-07-26T01:09:48;5.78;;;2.22;;
64033;SDS011;50280;49.864;8.638;2022-07-26T01:12:21;7.30;;;2.38;;
64033;SDS011;50280;49.864;8.638;2022-07-26T01:14:54;9.75;;;2.10;;
64033;SDS011;50280;49.864;8.638;2022-07-26T01:17:26;9.02;;;2.15;;
64033;SDS011;50280;49.864;8.638;2022-07-26T01:20:00;4.85;;;2.17;;
64033;SDS011;50280;49.864;8.638;2022-07-26T01:22:34;8.05;;;2.83;;
64033;SDS011;50280;49.864;8.638;2022-07-26T01:25:07;4.97;;;2.25;;
64033;SDS011;50280;49.864;8.638;2022-07-26T01:27:41;7.10;;;2.20;;
64033;SDS011;50280;49.864;8.638;2022-07-26T01:30:19;5.97;;;2.08;;
64033;SDS011;50280;49.864;8.638;2022-07-26T01:32:52;4.03;;;2.10;;
64033;SDS011;50280;49.864;8.638;2022-07-26T01:35:24;4.97;;;2.13;;
64033;SDS011;50280;49.864;8.638;2022-07-26T01:37:58;9.45;;;2.60;;
64033;SDS011;50280;49.864;8.638;2022-07-26T01:40:31;4.60;;;2.10;;
64033;SDS011;50280;49.864;8.638;2022-07-26T01:43:03;8.55;;;2.60;;
64033;SDS011;50280;49.864;8.638;2022-07-26T01:45:35;5.35;;;2.40;;
64033;SDS011;50280;49.864;8.638;2022-07-26T01:48:08;5.22;;;2.10;;
64033;SDS011;50280;49.864;8.638;2022-07-26T01:50:41;4.68;;;2.00;;
64033;SDS011;50280;49.864;8.638;2022-07-26T01:53:15;5.03;;;2.20;;
64033;SDS011;50280;49.864;8.638;2022-07-26T01:55:47;7.05;;;2.30;;
64033;SDS011;50280;49.864;8.638;2022-07-26T01:58:20;5.53;;;2.40;;
64033;SDS011;50280;49.864;8.638;2022-07-26T02:00:53;4.03;;;2.10;;
64033;SDS011;50280;49.864;8.638;2022-07-26T02:03:25;6.43;;;2.10;;
64033;SDS011;50280;49.864;8.638;2022-07-26T02:05:57;6.40;;;2.30;;
64033;SDS011;50280;49.864;8.638;2022-07-26T02:08:31;5.47;;;2.42;;
64033;SDS011;50280;49.864;8.638;2022-07-26T02:11:04;9.85;;;2.22;;
64033;SDS011;50280;49.864;8.638;2022-07-26T02:13:38;4.70;;;2.38;;
64033;SDS011;50280;49.864;8.638;2022-07-26T02:16:13;4.18;;;1.95;;
64033;SDS011;50280;49.864;8.638;2022-07-26T02:18:46;4.65;;;2.00;;
64033;SDS011;50280;49.864;8.638;2022-07-26T02:21:18;6.65;;;2.40;;
64033;SDS011;50280;49.864;8.638;2022-07-26T02:23:52;5.82;;;1.95;;
64033;SDS011;50280;49.864;8.638;2022-07-26T02:26:24;7.38;;;2.20;;
64033;SDS011;50280;49.864;8.638;2022-07-26T02:28:57;6.65;;;2.22;;
64033;SDS011;50280;49.864;8.638;2022-07-26T02:31:29;8.15;;;2.97;;
64033;SDS011;50280;49.864;8.638;2022-07-26T02:34:02;6.72;;;2.88;;
64033;SDS011;50280;49.864;8.638;2022-07-26T02:36:34;8.60;;;3.08;;
64033;SDS011;50280;49.864;8.638;2022-07-26T02:39:08;8.57;;;3.50;;
64033;SDS011;50280;49.864;8.638;2022-07-26T02:41:41;8.60;;;3.15;;
64033;SDS011;50280;49.864;8.638;2022-07-26T02:44:14;8.05;;;3.47;;
64033;SDS011;50280;49.864;8.638;2022-07-26T02:46:46;7.95;;;3.08;;
64033;SDS011;50280;49.864;8.638;2022-07-26T02:49:19;6.60;;;2.95;;
64033;SDS011;50280;49.864;8.638;2022-07-26T02:51:52;5.72;;;3.00;;
64033;SDS011;50280;49.864;8.638;2022-07-26T02:54:26;6.88;;;2.72;;
64033;SDS011;50280;49.864;8.638;2022-07-26T02:56:58;7.95;;;2.83;;
64033;SDS011;50280;49.864;8.638;2022-07-26T02:59:31;10.50;;;2.78;;
64033;SDS011;50280;49.864;8.638;2022-07-26T03:02:03;5.85;;;2.60;;
64033;SDS011;50280;49.864;8.638;2022-07-26T03:04:36;5.28;;;2.58;;
64033;SDS011;50280;49.864;8.638;2022-07-26T03:07:08;5.40;;;2.60;;
64033;SDS011;50280;49.864;8.638;2022-07-26T03:09:42;7.85;;;2.90;;
64033;SDS011;50280;49.864;8.638;2022-07-26T03:12:14;5.03;;;2.42;;
64033;SDS011;50280;49.864;8.638;2022-07-26T03:14:47;6.28;;;2.78;;
64033;SDS011;50280;49.864;8.638;2022-07-26T03:17:19;8.45;;;2.60;;
64033;SDS011;50280;49.864;8.638;2022-07-26T03:19:51;6.20;;;2.78;;
64033;SDS011;50280;49.864;8.638;2022-07-26T03:22:24;5.93;;;2.63;;
64033;SDS011;50280;49.864;8.638;2022-07-26T03:24:58;7.45;;;2.65;;
64033;SDS011;50280;49.864;8.638;2022-07-26T03:27:30;8.65;;;2.78;;
64033;SDS011;50280;49.864;8.638;2022-07-26T03:30:02;6.60;;;2.60;;
64033;SDS011;50280;49.864;8.638;2022-07-26T03:32:36;6.25;;;2.70;;
64033;SDS011;50280;49.864;8.638;2022-07-26T03:35:09;5.78;;;2.60;;
64033;SDS011;50280;49.864;8.638;2022-07-26T03:37:41;5.95;;;2.60;;
64033;SDS011;50280;49.864;8.638;2022-07-26T03:40:15;6.90;;;2.60;;
64033;SDS011;50280;49.864;8.638;2022-07-26T03:42:49;6.43;;;2.53;;
64033;SDS011;50280;49.864;8.638;2022-07-26T03:45:22;4.55;;;2.53;;
64033;SDS011;50280;49.864;8.638;2022-07-26T03:47:54;6.47;;;2.95;;
64033;SDS011;50280;49.864;8.638;2022-07-26T03:50:27;6.68;;;2.65;;
64033;SDS011;50280;49.864;8.638;2022-07-26T03:53:00;5.43;;;2.90;;
64033;SDS011;50280;49.864;8.638;2022-07-26T03:55:33;9.15;;;2.80;;
64033;SDS011;50280;49.864;8.638;2022-07-26T03:58:06;6.05;;;2.47;;
64033;SDS011;50280;49.864;8.638;2022-07-26T04:00:38;8.00;;;2.67;;
64033;SDS011;50280;49.864;8.638;2022-07-26T04:03:11;4.10;;;2.50;;
64033;SDS011;50280;49.864;8.638;2022-07-26T04:05:43;4.50;;;2.55;;
64033;SDS011;50280;49.864;8.638;2022-07-26T04:08:16;7.53;;;2.67;;
64033;SDS011;50280;49.864;8.638;2022-07-26T04:10:49;4.80;;;2.58;;
64033;SDS011;50280;49.864;8.638;2022-07-26T04:13:22;5.53;;;2.40;;
64033;SDS011;50280;49.864;8.638;2022-07-26T04:15:54;4.28;;;2.40;;
64033;SDS011;50280;49.864;8.638;2022-07-26T04:18:27;4.72;;;2.53;;
64033;SDS011;50280;49.864;8.638;2022-07-26T04:20:59;5.05;;;2.25;;
64033;SDS011;50280;49.864;8.638;2022-07-26T04:23:32;5.32;;;2.28;;
64033;SDS011;50280;49.864;8.638;2022-07-26T04:26:06;7.30;;;2.38;;
64033;SDS011;50280;49.864;8.638;2022-07-26T04:28:38;5.63;;;2.42;;
64033;SDS011;50280;49.864;8.638;2022-07-26T04:31:12;4.20;;;2.63;;
64033;SDS011;50280;49.864;8.638;2022-07-26T04:33:45;6.30;;;2.28;;
64033;SDS011;50280;49.864;8.638;2022-07-26T04:36:17;4.43;;;2.13;;
64033;SDS011;50280;49.864;8.638;2022-07-26T04:38:50;4.63;;;2.22;;
64033;SDS011;50280;49.864;8.638;2022-07-26T04:41:23;5.57;;;2.75;;
64033;SDS011;50280;49.864;8.638;2022-07-26T04:43:56;3.38;;;2.05;;
64033;SDS011;50280;49.864;8.638;2022-07-26T04:46:28;6.07;;;2.20;;
64033;SDS011;50280;49.864;8.638;2022-07-26T04:49:00;4.68;;;1.90;;
64033;SDS011;50280;49.864;8.638;2022-07-26T04:51:33;5.45;;;1.92;;
64033;SDS011;50280;49.864;8.638;2022-07-26T04:54:05;5.40;;;2.20;;
64033;SDS011;50280;49.864;8.638;2022-07-26T04:56:39;5.72;;;2.15;;
64033;SDS011;50280;49.864;8.638;2022-07-26T04:59:12;3.97;;;1.90;;
64033;SDS011;50280;49.864;8.638;2022-07-26T05:01:44;4.70;;;2.00;;
64033;SDS011;50280;49.864;8.638;2022-07-26T05:04:16;5.97;;;2.38;;
64033;SDS011;50280;49.864;8.638;2022-07-26T05:06:49;5.07;;;2.00;;
64033;SDS011;50280;49.864;8.638;2022-07-26T05:09:21;3.90;;;2.00;;
64033;SDS011;50280;49.864;8.638;2022-07-26T05:11:55;4.65;;;1.90;;
64033;SDS011;50280;49.864;8.638;2022-07-26T05:14:28;3.95;;;1.88;;
64033;SDS011;50280;49.864;8.638;2022-07-26T05:17:00;5.18;;;1.80;;
64033;SDS011;50280;49.864;8.638;2022-07-26T05:19:32;5.82;;;2.42;;
64033;SDS011;50280;49.864;8.638;2022-07-26T05:22:05;3.60;;;1.77;;
64033;SDS011;50280;49.864;8.638;2022-07-26T05:24:37;6.03;;;2.00;;
64033;SDS011;50280;49.864;8.638;2022-07-26T05:27:11;3.67;;;1.83;;
64033;SDS011;50280;49.864;8.638;2022-07-26T05:29:43;4.90;;;2.35;;
64033;SDS011;50280;49.864;8.638;2022-07-26T05:32:16;3.83;;;1.52;;
64033;SDS011;50280;49.864;8.638;2022-07-26T05:34:48;5.30;;;1.80;;
64033;SDS011;50280;49.864;8.638;2022-07-26T05:37:21;5.03;;;1.98;;
64033;SDS011;50280;49.864;8.638;2022-07-26T05:39:53;5.32;;;1.75;;
64033;SDS011;50280;49.864;8.638;2022-07-26T05:42:27;4.50;;;1.70;;
64033;SDS011;50280;49.864;8.638;2022-07-26T05:44:59;7.03;;;1.85;;
64033;SDS011;50280;49.864;8.638;2022-07-26T05:47:32;5.32;;;1.73;;
64033;SDS011;50280;49.864;8.638;2022-07-26T05:50:05;5.20;;;1.80;;
64033;SDS011;50280;49.864;8.638;2022-07-26T05:52:39;6.15;;;1.90;;
64033;SDS011;50280;49.864;8.638;2022-07-26T05:55:11;7.05;;;2.08;;
64033;SDS011;50280;49.864;8.638;2022-07-26T05:57:45;5.07;;;1.60;;
64033;SDS011;50280;49.864;8.638;2022-07-26T06:00:18;4.68;;;1.63;;
64033;SDS011;50280;49.864;8.638;2022-07-26T06:02:50;3.80;;;1.50;;
64033;SDS011;50280;49.864;8.638;2022-07-26T06:05:23;4.18;;;1.45;;
64033;SDS011;50280;49.864;8.638;2022-07-26T06:07:55;4.43;;;1.60;;
64033;SDS011;50280;49.864;8.638;2022-07-26T06:10:28;4.43;;;1.67;;
64033;SDS011;50280;49.864;8.638;2022-07-26T06:13:02;6.03;;;1.40;;
64033;SDS011;50280;49.864;8.638;2022-07-26T06:15:35;8.02;;;1.52;;
64033;SDS011;50280;49.864;8.638;2022-07-26T06:18:07;4.78;;;1.42;;
64033;SDS011;50280;49.864;8.638;2022-07-26T06:20:41;3.97;;;1.40;;
64033;SDS011;50280;49.864;8.638;2022-07-26T06:23:17;3.45;;;1.30;;
64033;SDS011;50280;49.864;8.638;2022-07-26T06:25:49;3.90;;;1.52;;
64033;SDS011;50280;49.864;8.638;2022-07-26T06:28:23;5.05;;;1.67;;
64033;SDS011;50280;49.864;8.638;2022-07-26T06:30:56;4.65;;;1.40;;
64033;SDS011;50280;49.864;8.638;2022-07-26T06:33:31;3.90;;;1.80;;
64033;SDS011;50280;49.864;8.638;2022-07-26T06:36:04;3.17;;;1.45;;
64033;SDS011;50280;49.864;8.638;2022-07-26T06:38:37;3.63;;;1.50;;
64033;SDS011;50280;49.864;8.638;2022-07-26T06:41:10;4.38;;;1.42;;
64033;SDS011;50280;49.864;8.638;2022-07-26T06:43:43;2.97;;;1.55;;
64033;SDS011;50280;49.864;8.638;2022-07-26T06:46:16;4.05;;;1.58;;
64033;SDS011;50280;49.864;8.638;2022-07-26T06:48:48;5.68;;;1.63;;
64033;SDS011;50280;49.864;8.638;2022-07-26T06:51:21;6.45;;;1.55;;
64033;SDS011;50280;49.864;8.638;2022-07-26T06:53:53;5.30;;;1.60;;
64033;SDS011;50280;49.864;8.638;2022-07-26T06:56:26;5.55;;;1.80;;
64033;SDS011;50280;49.864;8.638;2022-07-26T06:59:00;3.63;;;1.80;;
64033;SDS011;50280;49.864;8.638;2022-07-26T07:01:32;3.70;;;1.63;;
64033;SDS011;50280;49.864;8.638;2022-07-26T07:04:04;3.75;;;1.60;;
64033;SDS011;50280;49.864;8.638;2022-07-26T07:06:37;4.80;;;1.50;;
64033;SDS011;50280;49.864;8.638;2022-07-26T07:09:09;3.55;;;1.77;;
64033;SDS011;50280;49.864;8.638;2022-07-26T07:11:57;3.92;;;1.60;;
64033;SDS011;50280;49.864;8.638;2022-07-26T07:14:30;4.65;;;1.60;;
64033;SDS011;50280;49.864;8.638;2022-07-26T07:17:04;8.23;;;2.70;;
64033;SDS011;50280;49.864;8.638;2022-07-26T07:19:36;3.33;;;1.55;;
64033;SDS011;50280;49.864;8.638;2022-07-26T07:22:09;4.72;;;1.52;;
64033;SDS011;50280;49.864;8.638;2022-07-26T07:24:41;3.30;;;1.45;;
64033;SDS011;50280;49.864;8.638;2022-07-26T07:27:14;5.78;;;1.90;;
64033;SDS011;50280;49.864;8.638;2022-07-26T07:29:48;3.67;;;1.70;;
64033;SDS011;50280;49.864;8.638;2022-07-26T07:32:20;5.60;;;1.58;;
64033;SDS011;50280;49.864;8.638;2022-07-26T07:34:53;3.13;;;1.52;;
64033;SDS011;50280;49.864;8.638;2022-07-26T07:37:25;7.40;;;1.67;;
64033;SDS011;50280;49.864;8.638;2022-07-26T07:39:58;4.55;;;1.70;;
64033;SDS011;50280;49.864;8.638;2022-07-26T07:42:30;5.45;;;1.65;;
64033;SDS011;50280;49.864;8.638;2022-07-26T07:45:05;3.75;;;1.52;;
64033;SDS011;50280;49.864;8.638;2022-07-26T07:47:38;4.38;;;1.60;;
64033;SDS011;50280;49.864;8.638;2022-07-26T07:50:10;2.42;;;1.40;;
64033;SDS011;50280;49.864;8.638;2022-07-26T07:52:43;2.67;;;1.40;;
64033;SDS011;50280;49.864;8.638;2022-07-26T07:55:15;4.32;;;1.40;;
64033;SDS011;50280;49.864;8.638;2022-07-26T07:57:48;4.63;;;1.80;;
64033;SDS011;50280;49.864;8.638;2022-07-26T08:00:22;3.92;;;1.27;;
64033;SDS011;50280;49.864;8.638;2022-07-26T08:02:54;3.85;;;1.40;;
64033;SDS011;50280;49.864;8.638;2022-07-26T08:05:27;3.92;;;1.50;;
64033;SDS011;50280;49.864;8.638;2022-07-26T08:07:59;3.55;;;1.65;;
64033;SDS011;50280;49.864;8.638;2022-07-26T08:10:32;3.42;;;1.83;;
64033;SDS011;50280;49.864;8.638;2022-07-26T08:13:04;3.72;;;1.55;;
64033;SDS011;50280;49.864;8.638;2022-07-26T08:15:38;4.20;;;1.30;;
64033;SDS011;50280;49.864;8.638;2022-07-26T08:18:10;3.70;;;1.38;;
64033;SDS011;50280;49.864;8.638;2022-07-26T08:20:43;5.60;;;1.33;;
64033;SDS011;50280;49.864;8.638;2022-07-26T08:23:15;3.55;;;1.60;;
64033;SDS011;50280;49.864;8.638;2022-07-26T08:25:48;6.93;;;1.55;;
64033;SDS011;50280;49.864;8.638;2022-07-26T08:28:21;4.90;;;1.50;;
64033;SDS011;50280;49.864;8.638;2022-07-26T08:30:55;3.53;;;1.50;;
64033;SDS011;50280;49.864;8.638;2022-07-26T08:33:27;3.45;;;1.38;;
64033;SDS011;50280;49.864;8.638;2022-07-26T08:36:00;4.53;;;1.60;;
64033;SDS011;50280;49.864;8.638;2022-07-26T08:38:32;6.60;;;1.42;;
64033;SDS011;50280;49.864;8.638;2022-07-26T08:41:05;2.63;;;1.60;;
64033;SDS011;50280;49.864;8.638;2022-07-26T08:43:37;5.38;;;1.60;;
64033;SDS011;50280;49.864;8.638;2022-07-26T08:46:11;3.58;;;1.52;;
64033;SDS011;50280;49.864;8.638;2022-07-26T08:48:44;3.70;;;1.35;;
64033;SDS011;50280;49.864;8.638;2022-07-26T08:51:16;5.20;;;1.70;;
64033;SDS011;50280;49.864;8.638;2022-07-26T08:53:58;5.03;;;1.33;;
64033;SDS011;50280;49.864;8.638;2022-07-26T08:56:32;3.03;;;1.60;;
64033;SDS011;50280;49.864;8.638;2022-07-26T08:59:10;1.90;;;1.20;;
64033;SDS011;50280;49.864;8.638;2022-07-26T09:04:27;3.63;;;1.73;;
64033;SDS011;50280;49.864;8.638;2022-07-26T09:07:04;4.43;;;1.95;;
64033;SDS011;50280;49.864;8.638;2022-07-26T09:09:54;3.08;;;1.50;;
64033;SDS011;50280;49.864;8.638;2022-07-26T09:12:32;4.10;;;1.50;;
64033;SDS011;50280;49.864;8.638;2022-07-26T09:15:05;2.80;;;1.80;;
64033;SDS011;50280;49.864;8.638;2022-07-26T09:17:53;3.13;;;1.40;;
64033;SDS011;50280;49.864;8.638;2022-07-26T09:20:29;4.53;;;1.73;;
64033;SDS011;50280;49.864;8.638;2022-07-26T09:23:04;3.17;;;1.67;;
64033;SDS011;50280;49.864;8.638;2022-07-26T09:25:41;7.40;;;4.28;;
64033;SDS011;50280;49.864;8.638;2022-07-26T09:28:22;3.97;;;1.65;;
64033;SDS011;50280;49.864;8.638;2022-07-26T09:30:58;4.50;;;1.50;;
64033;SDS011;50280;49.864;8.638;2022-07-26T09:33:43;5.88;;;1.63;;
64033;SDS011;50280;49.864;8.638;2022-07-26T09:36:17;5.03;;;1.50;;
64033;SDS011;50280;49.864;8.638;2022-07-26T09:38:50;2.90;;;1.20;;
64033;SDS011;50280;49.864;8.638;2022-07-26T09:41:27;5.05;;;2.58;;
64033;SDS011;50280;49.864;8.638;2022-07-26T09:44:05;2.95;;;1.40;;
64033;SDS011;50280;49.864;8.638;2022-07-26T09:46:54;4.07;;;1.50;;
64033;SDS011;50280;49.864;8.638;2022-07-26T09:49:30;4.00;;;1.42;;
64033;SDS011;50280;49.864;8.638;2022-07-26T09:52:03;3.30;;;1.77;;
64033;SDS011;50280;49.864;8.638;2022-07-26T09:54:47;4.43;;;1.80;;
64033;SDS011;50280;49.864;8.638;2022-07-26T09:57:20;3.80;;;1.80;;
64033;SDS011;50280;49.864;8.638;2022-07-26T09:59:52;3.67;;;1.63;;
64033;SDS011;50280;49.864;8.638;2022-07-26T10:02:26;2.45;;;1.20;;
64033;SDS011;50280;49.864;8.638;2022-07-26T10:05:00;4.88;;;1.50;;
64033;SDS011;50280;49.864;8.638;2022-07-26T10:07:32;4.15;;;1.67;;
64033;SDS011;50280;49.864;8.638;2022-07-26T10:10:06;3.88;;;1.17;;
64033;SDS011;50280;49.864;8.638;2022-07-26T10:12:48;4.07;;;1.55;;
64033;SDS011;50280;49.864;8.638;2022-07-26T10:15:36;5.88;;;1.50;;
64033;SDS011;50280;49.864;8.638;2022-07-26T10:21:21;3.45;;;1.38;;
64033;SDS011;50280;49.864;8.638;2022-07-26T10:23:56;1.80;;;1.30;;
64033;SDS011;50280;49.864;8.638;2022-07-26T10:26:35;2.90;;;1.00;;
64033;SDS011;50280;49.864;8.638;2022-07-26T10:29:22;2.05;;;1.27;;
64033;SDS011;50280;49.864;8.638;2022-07-26T10:34:49;3.17;;;1.15;;
64033;SDS011;50280;49.864;8.638;2022-07-26T10:37:24;4.20;;;1.33;;
64033;SDS011;50280;49.864;8.638;2022-07-26T10:42:52;3.45;;;1.30;;
64033;SDS011;50280;49.864;8.638;2022-07-26T10:45:39;6.85;;;1.35;;
64033;SDS011;50280;49.864;8.638;2022-07-26T10:48:13;3.25;;;1.15;;
64033;SDS011;50280;49.864;8.638;2022-07-26T10:50:49;4.13;;;1.33;;
64033;SDS011;50280;49.864;8.638;2022-07-26T10:53:26;5.80;;;1.58;;
64033;SDS011;50280;49.864;8.638;2022-07-26T10:55:58;7.10;;;2.47;;
64033;SDS011;50280;49.864;8.638;2022-07-26T10:58:40;3.85;;;1.80;;
64033;SDS011;50280;49.864;8.638;2022-07-26T11:01:13;6.45;;;1.73;;
64033;SDS011;50280;49.864;8.638;2022-07-26T11:03:47;4.28;;;1.48;;
64033;SDS011;50280;49.864;8.638;2022-07-26T11:06:19;4.40;;;1.40;;
64033;SDS011;50280;49.864;8.638;2022-07-26T11:08:53;2.97;;;1.20;;
64033;SDS011;50280;49.864;8.638;2022-07-26T11:11:27;3.08;;;1.23;;
64033;SDS011;50280;49.864;8.638;2022-07-26T11:14:04;2.03;;;1.30;;
64033;SDS011;50280;49.864;8.638;2022-07-26T11:16:40;2.65;;;1.25;;
64033;SDS011;50280;49.864;8.638;2022-07-26T11:19:17;4.13;;;1.50;;
64033;SDS011;50280;49.864;8.638;2022-07-26T11:21:53;3.63;;;1.40;;
64033;SDS011;50280;49.864;8.638;2022-07-26T11:24:30;4.85;;;1.45;;
64033;SDS011;50280;49.864;8.638;2022-07-26T11:27:02;3.88;;;1.25;;
64033;SDS011;50280;49.864;8.638;2022-07-26T11:29:36;2.35;;;1.10;;
64033;SDS011;50280;49.864;8.638;2022-07-26T11:32:15;3.58;;;1.30;;
64033;SDS011;50280;49.864;8.638;2022-07-26T11:34:56;3.97;;;1.10;;
64033;SDS011;50280;49.864;8.638;2022-07-26T11:37:30;3.65;;;1.10;;
64033;SDS011;50280;49.864;8.638;2022-07-26T11:40:04;2.95;;;1.00;;
64033;SDS011;50280;49.864;8.638;2022-07-26T11:42:38;2.58;;;1.10;;
64033;SDS011;50280;49.864;8.638;2022-07-26T11:45:11;1.95;;;1.20;;
64033;SDS011;50280;49.864;8.638;2022-07-26T11:47:43;2.08;;;1.13;;
64033;SDS011;50280;49.864;8.638;2022-07-26T11:50:16;2.00;;;1.10;;
64033;SDS011;50280;49.864;8.638;2022-07-26T11:52:50;2.25;;;1.00;;
64033;SDS011;50280;49.864;8.638;2022-07-26T11:55:27;3.58;;;1.00;;
64033;SDS011;50280;49.864;8.638;2022-07-26T11:58:03;2.95;;;0.90;;
64033;SDS011;50280;49.864;8.638;2022-07-26T12:00:36;2.42;;;1.00;;
64033;SDS011;50280;49.864;8.638;2022-07-26T12:03:09;5.85;;;1.35;;
64033;SDS011;50280;49.864;8.638;2022-07-26T12:05:41;5.65;;;1.00;;
64033;SDS011;50280;49.864;8.638;2022-07-26T12:08:39;3.75;;;1.00;;
64033;SDS011;50280;49.864;8.638;2022-07-26T12:11:17;4.38;;;1.10;;
64033;SDS011;50280;49.864;8.638;2022-07-26T12:13:53;3.30;;;1.20;;
64033;SDS011;50280;49.864;8.638;2022-07-26T12:16:39;2.33;;;1.25;;
64033;SDS011;50280;49.864;8.638;2022-07-26T12:19:22;2.05;;;1.02;;
64033;SDS011;50280;49.864;8.638;2022-07-26T12:22:06;4.10;;;1.17;;
64033;SDS011;50280;49.864;8.638;2022-07-26T12:24:43;2.30;;;1.20;;
64033;SDS011;50280;49.864;8.638;2022-07-26T12:27:27;3.50;;;1.10;;
64033;SDS011;50280;49.864;8.638;2022-07-26T12:30:12;4.00;;;0.90;;
64033;SDS011;50280;49.864;8.638;2022-07-26T12:32:47;2.78;;;1.10;;
64033;SDS011;50280;49.864;8.638;2022-07-26T12:35:27;3.83;;;1.42;;
64033;SDS011;50280;49.864;8.638;2022-07-26T12:38:03;3.40;;;1.20;;
64033;SDS011;50280;49.864;8.638;2022-07-26T12:40:38;3.28;;;1.05;;
64033;SDS011;50280;49.864;8.638;2022-07-26T12:43:14;3.30;;;1.10;;
64033;SDS011;50280;49.864;8.638;2022-07-26T12:45:47;3.05;;;1.20;;
64033;SDS011;50280;49.864;8.638;2022-07-26T12:48:19;3.22;;;1.10;;
64033;SDS011;50280;49.864;8.638;2022-07-26T12:50:51;2.88;;;1.20;;
64033;SDS011;50280;49.864;8.638;2022-07-26T12:53:24;2.88;;;1.10;;
64033;SDS011;50280;49.864;8.638;2022-07-26T12:55:56;4.38;;;1.25;;
64033;SDS011;50280;49.864;8.638;2022-07-26T12:58:30;4.57;;;1.20;;
64033;SDS011;50280;49.864;8.638;2022-07-26T13:01:02;2.92;;;1.05;;
64033;SDS011;50280;49.864;8.638;2022-07-26T13:03:35;3.45;;;1.00;;
64033;SDS011;50280;49.864;8.638;2022-07-26T13:06:08;2.35;;;0.90;;
64033;SDS011;50280;49.864;8.638;2022-07-26T13:08:40;2.50;;;1.08;;
64033;SDS011;50280;49.864;8.638;2022-07-26T13:11:13;3.85;;;1.20;;
64033;SDS011;50280;49.864;8.638;2022-07-26T13:13:47;6.80;;;1.40;;
64033;SDS011;50280;49.864;8.638;2022-07-26T13:16:20;5.68;;;1.30;;
64033;SDS011;50280;49.864;8.638;2022-07-26T13:18:52;2.47;;;1.20;;
64033;SDS011;50280;49.864;8.638;2022-07-26T13:21:25;4.60;;;1.40;;
64033;SDS011;50280;49.864;8.638;2022-07-26T13:23:57;4.90;;;1.30;;
64033;SDS011;50280;49.864;8.638;2022-07-26T13:26:30;3.25;;;1.30;;
64033;SDS011;50280;49.864;8.638;2022-07-26T13:29:04;3.03;;;1.30;;
64033;SDS011;50280;49.864;8.638;2022-07-26T13:31:36;4.03;;;1.67;;
64033;SDS011;50280;49.864;8.638;2022-07-26T13:34:09;4.38;;;1.40;;
64033;SDS011;50280;49.864;8.638;2022-07-26T13:36:42;6.65;;;1.60;;
64033;SDS011;50280;49.864;8.638;2022-07-26T13:39:14;5.45;;;1.85;;
64033;SDS011;50280;49.864;8.638;2022-07-26T13:41:47;4.32;;;1.45;;
64033;SDS011;50280;49.864;8.638;2022-07-26T13:44:21;3.50;;;1.63;;
64033;SDS011;50280;49.864;8.638;2022-07-26T13:46:54;5.22;;;1.55;;
64033;SDS011;50280;49.864;8.638;2022-07-26T13:49:26;9.48;;;1.85;;
64033;SDS011;50280;49.864;8.638;2022-07-26T13:51:59;3.92;;;1.73;;
64033;SDS011;50280;49.864;8.638;2022-07-26T13:54:32;3.08;;;1.70;;
64033;SDS011;50280;49.864;8.638;2022-07-26T13:57:06;5.05;;;1.80;;
64033;SDS011;50280;49.864;8.638;2022-07-26T13:59:40;5.80;;;1.70;;
64033;SDS011;50280;49.864;8.638;2022-07-26T14:02:12;4.82;;;1.70;;
64033;SDS011;50280;49.864;8.638;2022-07-26T14:04:45;3.15;;;1.70;;
64033;SDS011;50280;49.864;8.638;2022-07-26T14:07:17;5.00;;;1.92;;
64033;SDS011;50280;49.864;8.638;2022-07-26T14:09:50;3.50;;;1.75;;
64033;SDS011;50280;49.864;8.638;2022-07-26T14:12:22;3.83;;;1.70;;
64033;SDS011;50280;49.864;8.638;2022-07-26T14:14:56;4.43;;;1.98;;
64033;SDS011;50280;49.864;8.638;2022-07-26T14:17:29;3.97;;;1.90;;
64033;SDS011;50280;49.864;8.638;2022-07-26T14:20:01;4.25;;;1.88;;
64033;SDS011;50280;49.864;8.638;2022-07-26T14:22:36;5.28;;;2.10;;
64033;SDS011;50280;49.864;8.638;2022-07-26T14:25:08;4.68;;;2.13;;
64033;SDS011;50280;49.864;8.638;2022-07-26T14:27:41;4.13;;;1.80;;
64033;SDS011;50280;49.864;8.638;2022-07-26T14:30:15;4.97;;;2.30;;
64033;SDS011;50280;49.864;8.638;2022-07-26T14:32:47;5.18;;;1.80;;
64033;SDS011;50280;49.864;8.638;2022-07-26T14:35:21;3.25;;;1.45;;
64033;SDS011;50280;49.864;8.638;2022-07-26T14:37:53;4.00;;;1.90;;
64033;SDS011;50280;49.864;8.638;2022-07-26T14:40:26;6.05;;;2.67;;
64033;SDS011;50280;49.864;8.638;2022-07-26T14:42:58;3.10;;;1.55;;
64033;SDS011;50280;49.864;8.638;2022-07-26T14:45:33;4.93;;;1.83;;
64033;SDS011;50280;49.864;8.638;2022-07-26T14:48:05;4.38;;;1.80;;
64033;SDS011;50280;49.864;8.638;2022-07-26T14:50:38;2.92;;;1.70;;
64033;SDS011;50280;49.864;8.638;2022-07-26T14:53:10;3.72;;;2.15;;
64033;SDS011;50280;49.864;8.638;2022-07-26T14:55:44;3.13;;;1.92;;
64033;SDS011;50280;49.864;8.638;2022-07-26T14:58:17;2.72;;;1.50;;
64033;SDS011;50280;49.864;8.638;2022-07-26T15:00:51;3.20;;;1.58;;
64033;SDS011;50280;49.864;8.638;2022-07-26T15:03:24;4.82;;;1.77;;
64033;SDS011;50280;49.864;8.638;2022-07-26T15:05:57;2.17;;;1.48;;
64033;SDS011;50280;49.864;8.638;2022-07-26T15:08:29;3.75;;;1.80;;
64033;SDS011;50280;49.864;8.638;2022-07-26T15:11:02;4.70;;;1.73;;
64033;SDS011;50280;49.864;8.638;2022-07-26T15:13:34;4.47;;;2.10;;
64033;SDS011;50280;49.864;8.638;2022-07-26T15:16:08;4.25;;;2.85;;
64033;SDS011;50280;49.864;8.638;2022-07-26T15:18:41;3.75;;;2.10;;
64033;SDS011;50280;49.864;8.638;2022-07-26T15:21:13;4.70;;;1.70;;
64033;SDS011;50280;49.864;8.638;2022-07-26T15:23:46;5.43;;;2.40;;
64033;SDS011;50280;49.864;8.638;2022-07-26T15:26:19;3.20;;;1.73;;
64033;SDS011;50280;49.864;8.638;2022-07-26T15:28:51;5.25;;;1.50;;
64033;SDS011;50280;49.864;8.638;2022-07-26T15:31:25;3.30;;;1.48;;
64033;SDS011;50280;49.864;8.638;2022-07-26T15:33:57;5.28;;;1.70;;
64033;SDS011;50280;49.864;8.638;2022-07-26T15:36:30;5.10;;;1.90;;
64033;SDS011;50280;49.864;8.638;2022-07-26T15:39:03;2.65;;;1.50;;